sensor_id;sensor_type;location;lat;lon;timestamp;temperature;humidity
20158;DHT22;10239;56.820;24.416;2023-05-29T00:02:01;9.80;99.90
20158;DHT22;10239;56.820;24.416;2023-05-29T00:04:28;9.70;99.90
20158;DHT22;10239;56.820;24.416;2023-05-29T00:06:56;9.70;99.90
20158;DHT22;10239;56.820;24.416;2023-05-29T00:09:24;9.50;99.90
20158;DHT22;10239;56.820;24.416;2023-05-29T00:11:52;9.40;99.90
20158;DHT22;10239;56.820;24.416;2023-05-29T00:14:20;9.40;99.90
20158;DHT22;10239;56.820;24.416;2023-05-29T00:16:50;9.30;99.90
20158;DHT22;10239;56.820;24.416;2023-05-29T00:19:18;9.40;99.90
20158;DHT22;10239;56.820;24.416;2023-05-29T00:21:49;9.40;99.90
20158;DHT22;10239;56.820;24.416;2023-05-29T00:24:17;9.40;99.90
20158;DHT22;10239;56.820;24.416;2023-05-29T00:26:44;9.30;99.90
20158;DHT22;10239;56.820;24.416;2023-05-29T00:29:12;9.20;99.90
20158;DHT22;10239;56.820;24.416;2023-05-29T00:31:40;9.20;99.90
20158;DHT22;10239;56.820;24.416;2023-05-29T00:34:07;9.20;99.90
20158;DHT22;10239;56.820;24.416;2023-05-29T00:36:35;9.20;99.90
20158;DHT22;10239;56.820;24.416;2023-05-29T00:39:04;9.30;99.90
20158;DHT22;10239;56.820;24.416;2023-05-29T00:41:31;9.20;99.90
20158;DHT22;10239;56.820;24.416;2023-05-29T00:43:59;9.20;99.90
20158;DHT22;10239;56.820;24.416;2023-05-29T00:46:27;9.20;99.90
20158;DHT22;10239;56.820;24.416;2023-05-29T00:48:55;9.10;99.90
20158;DHT22;10239;56.820;24.416;2023-05-29T00:51:23;9.00;99.90
20158;DHT22;10239;56.820;24.416;2023-05-29T00:53:53;8.90;99.90
20158;DHT22;10239;56.820;24.416;2023-05-29T00:56:21;8.80;99.90
20158;DHT22;10239;56.820;24.416;2023-05-29T00:58:50;8.80;99.90
20158;DHT22;10239;56.820;24.416;2023-05-29T01:01:19;8.80;99.90
20158;DHT22;10239;56.820;24.416;2023-05-29T01:03:47;8.80;99.90
20158;DHT22;10239;56.820;24.416;2023-05-29T01:06:16;8.70;99.90
20158;DHT22;10239;56.820;24.416;2023-05-29T01:08:44;8.70;99.90
20158;DHT22;10239;56.820;24.416;2023-05-29T01:11:38;8.70;99.90
20158;DHT22;10239;56.820;24.416;2023-05-29T01:14:09;8.60;99.90
20158;DHT22;10239;56.820;24.416;2023-05-29T01:16:51;8.60;99.90
20158;DHT22;10239;56.820;24.416;2023-05-29T01:27:48;8.50;99.90
20158;DHT22;10239;56.820;24.416;2023-05-29T01:30:17;8.50;99.90
20158;DHT22;10239;56.820;24.416;2023-05-29T01:32:45;8.50;99.90
20158;DHT22;10239;56.820;24.416;2023-05-29T01:35:14;8.40;99.90
20158;DHT22;10239;56.820;24.416;2023-05-29T01:37:41;8.20;99.90
20158;DHT22;10239;56.820;24.416;2023-05-29T01:40:09;8.20;99.90
20158;DHT22;10239;56.820;24.416;2023-05-29T01:42:37;8.20;99.90
20158;DHT22;10239;56.820;24.416;2023-05-29T01:45:05;8.20;99.90
20158;DHT22;10239;56.820;24.416;2023-05-29T01:47:34;8.30;99.90
20158;DHT22;10239;56.820;24.416;2023-05-29T01:50:04;8.30;99.90
20158;DHT22;10239;56.820;24.416;2023-05-29T01:52:34;8.30;99.90
20158;DHT22;10239;56.820;24.416;2023-05-29T01:55:02;8.10;99.90
20158;DHT22;10239;56.820;24.416;2023-05-29T01:57:30;8.10;99.90
20158;DHT22;10239;56.820;24.416;2023-05-29T01:59:58;8.10;99.90
20158;DHT22;10239;56.820;24.416;2023-05-29T02:02:26;8.10;99.90
20158;DHT22;10239;56.820;24.416;2023-05-29T02:04:54;8.00;99.90
20158;DHT22;10239;56.820;24.416;2023-05-29T02:07:21;8.10;99.90
20158;DHT22;10239;56.820;24.416;2023-05-29T02:09:49;8.20;99.90
20158;DHT22;10239;56.820;24.416;2023-05-29T02:12:17;8.20;99.90
20158;DHT22;10239;56.820;24.416;2023-05-29T02:14:44;8.20;99.90
20158;DHT22;10239;56.820;24.416;2023-05-29T02:17:12;8.30;99.90
20158;DHT22;10239;56.820;24.416;2023-05-29T02:19:40;8.30;99.90
20158;DHT22;10239;56.820;24.416;2023-05-29T02:22:07;8.40;99.90
20158;DHT22;10239;56.820;24.416;2023-05-29T02:24:35;8.50;99.90
20158;DHT22;10239;56.820;24.416;2023-05-29T02:27:03;8.50;99.90
20158;DHT22;10239;56.820;24.416;2023-05-29T02:29:30;8.60;99.90
20158;DHT22;10239;56.820;24.416;2023-05-29T02:31:58;8.50;99.90
20158;DHT22;10239;56.820;24.416;2023-05-29T02:34:26;8.60;99.90
20158;DHT22;10239;56.820;24.416;2023-05-29T02:36:54;8.80;99.90
20158;DHT22;10239;56.820;24.416;2023-05-29T02:39:23;8.90;99.90
20158;DHT22;10239;56.820;24.416;2023-05-29T02:41:51;8.90;99.90
20158;DHT22;10239;56.820;24.416;2023-05-29T02:44:19;8.80;99.90
20158;DHT22;10239;56.820;24.416;2023-05-29T02:46:47;8.80;99.90
20158;DHT22;10239;56.820;24.416;2023-05-29T02:49:18;8.90;99.90
20158;DHT22;10239;56.820;24.416;2023-05-29T02:51:45;8.70;99.90
20158;DHT22;10239;56.820;24.416;2023-05-29T02:54:13;8.90;99.90
20158;DHT22;10239;56.820;24.416;2023-05-29T02:56:41;9.20;99.90
20158;DHT22;10239;56.820;24.416;2023-05-29T02:59:08;9.30;99.90
20158;DHT22;10239;56.820;24.416;2023-05-29T03:01:35;9.50;99.90
20158;DHT22;10239;56.820;24.416;2023-05-29T03:04:03;9.70;99.90
20158;DHT22;10239;56.820;24.416;2023-05-29T03:06:31;9.80;99.90
20158;DHT22;10239;56.820;24.416;2023-05-29T03:08:59;9.70;99.90
20158;DHT22;10239;56.820;24.416;2023-05-29T03:11:27;10.00;99.90
20158;DHT22;10239;56.820;24.416;2023-05-29T03:13:56;9.90;99.90
20158;DHT22;10239;56.820;24.416;2023-05-29T03:16:23;10.20;99.90
20158;DHT22;10239;56.820;24.416;2023-05-29T03:18:51;10.40;99.90
20158;DHT22;10239;56.820;24.416;2023-05-29T03:21:20;10.70;99.90
20158;DHT22;10239;56.820;24.416;2023-05-29T03:23:48;10.90;99.90
20158;DHT22;10239;56.820;24.416;2023-05-29T03:26:16;11.10;99.90
20158;DHT22;10239;56.820;24.416;2023-05-29T03:28:44;11.30;99.90
20158;DHT22;10239;56.820;24.416;2023-05-29T03:31:12;11.40;99.90
20158;DHT22;10239;56.820;24.416;2023-05-29T03:33:39;11.70;99.90
20158;DHT22;10239;56.820;24.416;2023-05-29T03:36:27;11.80;99.90
20158;DHT22;10239;56.820;24.416;2023-05-29T03:38:55;12.00;99.90
20158;DHT22;10239;56.820;24.416;2023-05-29T03:41:23;12.00;99.90
20158;DHT22;10239;56.820;24.416;2023-05-29T03:43:52;12.00;99.90
20158;DHT22;10239;56.820;24.416;2023-05-29T03:46:21;12.10;99.90
20158;DHT22;10239;56.820;24.416;2023-05-29T03:48:49;12.30;99.90
20158;DHT22;10239;56.820;24.416;2023-05-29T03:51:16;12.20;99.90
20158;DHT22;10239;56.820;24.416;2023-05-29T03:53:44;12.20;99.90
20158;DHT22;10239;56.820;24.416;2023-05-29T03:56:12;12.40;99.90
20158;DHT22;10239;56.820;24.416;2023-05-29T03:58:40;12.60;99.90
20158;DHT22;10239;56.820;24.416;2023-05-29T04:01:08;12.80;99.90
20158;DHT22;10239;56.820;24.416;2023-05-29T04:03:36;13.10;99.90
20158;DHT22;10239;56.820;24.416;2023-05-29T04:06:06;13.40;99.90
20158;DHT22;10239;56.820;24.416;2023-05-29T04:08:34;13.70;99.90
20158;DHT22;10239;56.820;24.416;2023-05-29T04:11:02;13.80;99.90
20158;DHT22;10239;56.820;24.416;2023-05-29T04:13:30;13.90;99.90
20158;DHT22;10239;56.820;24.416;2023-05-29T04:15:58;13.90;99.90
20158;DHT22;10239;56.820;24.416;2023-05-29T04:18:26;13.90;99.90
20158;DHT22;10239;56.820;24.416;2023-05-29T04:20:53;14.10;99.90
20158;DHT22;10239;56.820;24.416;2023-05-29T04:23:22;14.20;99.90
20158;DHT22;10239;56.820;24.416;2023-05-29T04:25:50;14.40;99.90
20158;DHT22;10239;56.820;24.416;2023-05-29T04:28:24;14.40;99.90
20158;DHT22;10239;56.820;24.416;2023-05-29T04:30:52;14.40;99.90
20158;DHT22;10239;56.820;24.416;2023-05-29T04:33:20;14.20;99.90
20158;DHT22;10239;56.820;24.416;2023-05-29T04:35:50;14.30;99.90
20158;DHT22;10239;56.820;24.416;2023-05-29T04:38:18;14.40;99.90
20158;DHT22;10239;56.820;24.416;2023-05-29T04:40:53;14.40;99.90
20158;DHT22;10239;56.820;24.416;2023-05-29T04:43:27;14.20;99.90
20158;DHT22;10239;56.820;24.416;2023-05-29T04:46:00;14.20;99.90
20158;DHT22;10239;56.820;24.416;2023-05-29T04:48:29;14.40;99.90
20158;DHT22;10239;56.820;24.416;2023-05-29T04:50:57;15.40;99.90
20158;DHT22;10239;56.820;24.416;2023-05-29T04:53:24;16.90;99.90
20158;DHT22;10239;56.820;24.416;2023-05-29T04:55:52;17.70;99.90
20158;DHT22;10239;56.820;24.416;2023-05-29T04:58:21;18.80;99.90
20158;DHT22;10239;56.820;24.416;2023-05-29T05:00:50;19.40;99.90
20158;DHT22;10239;56.820;24.416;2023-05-29T05:03:18;20.40;99.90
20158;DHT22;10239;56.820;24.416;2023-05-29T05:05:46;20.70;99.90
20158;DHT22;10239;56.820;24.416;2023-05-29T05:08:15;20.80;99.90
20158;DHT22;10239;56.820;24.416;2023-05-29T05:10:44;20.60;99.90
20158;DHT22;10239;56.820;24.416;2023-05-29T05:13:12;20.80;99.90
20158;DHT22;10239;56.820;24.416;2023-05-29T05:15:40;20.80;99.90
20158;DHT22;10239;56.820;24.416;2023-05-29T05:18:08;21.50;99.90
20158;DHT22;10239;56.820;24.416;2023-05-29T05:20:37;22.50;99.90
20158;DHT22;10239;56.820;24.416;2023-05-29T05:23:06;23.20;99.90
20158;DHT22;10239;56.820;24.416;2023-05-29T05:25:34;24.70;99.90
20158;DHT22;10239;56.820;24.416;2023-05-29T05:28:03;25.90;99.90
20158;DHT22;10239;56.820;24.416;2023-05-29T05:30:33;27.10;96.60
20158;DHT22;10239;56.820;24.416;2023-05-29T05:33:00;27.70;95.10
20158;DHT22;10239;56.820;24.416;2023-05-29T05:35:28;28.00;92.10
20158;DHT22;10239;56.820;24.416;2023-05-29T05:37:56;28.30;92.20
20158;DHT22;10239;56.820;24.416;2023-05-29T05:40:28;28.80;91.00
20158;DHT22;10239;56.820;24.416;2023-05-29T05:43:02;28.80;88.50
20158;DHT22;10239;56.820;24.416;2023-05-29T05:45:55;28.60;90.00
20158;DHT22;10239;56.820;24.416;2023-05-29T05:48:24;29.40;86.30
20158;DHT22;10239;56.820;24.416;2023-05-29T05:50:52;29.90;82.90
20158;DHT22;10239;56.820;24.416;2023-05-29T05:53:20;30.10;86.60
20158;DHT22;10239;56.820;24.416;2023-05-29T05:55:48;30.70;81.30
20158;DHT22;10239;56.820;24.416;2023-05-29T05:58:16;31.20;80.00
20158;DHT22;10239;56.820;24.416;2023-05-29T06:00:44;31.30;75.70
20158;DHT22;10239;56.820;24.416;2023-05-29T06:03:12;31.40;75.00
20158;DHT22;10239;56.820;24.416;2023-05-29T06:05:57;31.60;73.60
20158;DHT22;10239;56.820;24.416;2023-05-29T06:08:25;32.10;76.30
20158;DHT22;10239;56.820;24.416;2023-05-29T06:10:53;32.00;71.30
20158;DHT22;10239;56.820;24.416;2023-05-29T06:13:21;32.40;72.90
20158;DHT22;10239;56.820;24.416;2023-05-29T06:15:54;32.90;68.90
20158;DHT22;10239;56.820;24.416;2023-05-29T06:18:22;33.30;71.60
20158;DHT22;10239;56.820;24.416;2023-05-29T06:20:50;33.60;71.20
20158;DHT22;10239;56.820;24.416;2023-05-29T06:23:18;33.80;67.00
20158;DHT22;10239;56.820;24.416;2023-05-29T06:25:48;33.50;65.30
20158;DHT22;10239;56.820;24.416;2023-05-29T06:28:16;33.10;68.50
20158;DHT22;10239;56.820;24.416;2023-05-29T06:30:45;33.50;69.20
20158;DHT22;10239;56.820;24.416;2023-05-29T06:33:13;33.60;66.00
20158;DHT22;10239;56.820;24.416;2023-05-29T06:35:41;33.50;64.70
20158;DHT22;10239;56.820;24.416;2023-05-29T06:38:09;33.60;64.90
20158;DHT22;10239;56.820;24.416;2023-05-29T06:40:37;33.50;66.30
20158;DHT22;10239;56.820;24.416;2023-05-29T06:43:05;33.90;64.30
20158;DHT22;10239;56.820;24.416;2023-05-29T06:45:38;33.60;65.50
20158;DHT22;10239;56.820;24.416;2023-05-29T06:48:07;33.60;65.60
20158;DHT22;10239;56.820;24.416;2023-05-29T06:50:34;33.80;68.30
20158;DHT22;10239;56.820;24.416;2023-05-29T06:53:22;34.40;64.90
20158;DHT22;10239;56.820;24.416;2023-05-29T06:55:50;34.40;61.30
20158;DHT22;10239;56.820;24.416;2023-05-29T06:58:17;34.20;62.20
20158;DHT22;10239;56.820;24.416;2023-05-29T07:04:13;35.10;64.80
20158;DHT22;10239;56.820;24.416;2023-05-29T07:06:41;35.20;64.00
20158;DHT22;10239;56.820;24.416;2023-05-29T07:09:09;35.20;61.50
20158;DHT22;10239;56.820;24.416;2023-05-29T07:11:38;35.10;62.10
20158;DHT22;10239;56.820;24.416;2023-05-29T07:14:06;34.70;61.20
20158;DHT22;10239;56.820;24.416;2023-05-29T07:16:34;34.10;63.00
20158;DHT22;10239;56.820;24.416;2023-05-29T07:19:05;34.20;62.60
20158;DHT22;10239;56.820;24.416;2023-05-29T07:21:36;34.10;62.70
20158;DHT22;10239;56.820;24.416;2023-05-29T07:24:05;33.90;61.10
20158;DHT22;10239;56.820;24.416;2023-05-29T07:26:35;33.60;61.20
20158;DHT22;10239;56.820;24.416;2023-05-29T07:29:03;33.60;63.40
20158;DHT22;10239;56.820;24.416;2023-05-29T07:31:33;33.60;60.60
20158;DHT22;10239;56.820;24.416;2023-05-29T07:34:02;33.10;61.10
20158;DHT22;10239;56.820;24.416;2023-05-29T07:36:30;32.40;64.10
20158;DHT22;10239;56.820;24.416;2023-05-29T07:39:03;33.00;64.40
20158;DHT22;10239;56.820;24.416;2023-05-29T07:41:33;33.80;63.50
20158;DHT22;10239;56.820;24.416;2023-05-29T07:44:02;33.90;61.60
20158;DHT22;10239;56.820;24.416;2023-05-29T07:46:30;33.70;62.70
20158;DHT22;10239;56.820;24.416;2023-05-29T07:49:16;33.80;61.60
20158;DHT22;10239;56.820;24.416;2023-05-29T07:51:44;34.10;59.50
20158;DHT22;10239;56.820;24.416;2023-05-29T07:54:12;34.20;61.00
20158;DHT22;10239;56.820;24.416;2023-05-29T07:56:40;34.30;61.80
20158;DHT22;10239;56.820;24.416;2023-05-29T07:59:08;34.50;59.50
20158;DHT22;10239;56.820;24.416;2023-05-29T08:01:37;33.70;59.50
20158;DHT22;10239;56.820;24.416;2023-05-29T08:04:11;33.30;61.80
20158;DHT22;10239;56.820;24.416;2023-05-29T08:06:39;33.00;63.60
20158;DHT22;10239;56.820;24.416;2023-05-29T08:09:10;32.40;62.30
20158;DHT22;10239;56.820;24.416;2023-05-29T08:11:38;33.10;62.00
20158;DHT22;10239;56.820;24.416;2023-05-29T08:14:06;33.20;65.00
20158;DHT22;10239;56.820;24.416;2023-05-29T08:16:33;33.20;61.50
20158;DHT22;10239;56.820;24.416;2023-05-29T08:19:01;33.40;63.20
20158;DHT22;10239;56.820;24.416;2023-05-29T08:21:32;33.60;61.30
20158;DHT22;10239;56.820;24.416;2023-05-29T08:24:01;33.20;60.60
20158;DHT22;10239;56.820;24.416;2023-05-29T08:26:29;32.70;62.30
20158;DHT22;10239;56.820;24.416;2023-05-29T08:28:57;31.90;62.50
20158;DHT22;10239;56.820;24.416;2023-05-29T08:31:25;31.30;63.60
20158;DHT22;10239;56.820;24.416;2023-05-29T08:33:53;30.90;62.90
20158;DHT22;10239;56.820;24.416;2023-05-29T08:36:22;30.50;66.70
20158;DHT22;10239;56.820;24.416;2023-05-29T08:38:50;30.50;66.50
20158;DHT22;10239;56.820;24.416;2023-05-29T08:44:04;30.70;64.40
20158;DHT22;10239;56.820;24.416;2023-05-29T08:46:35;29.90;64.80
20158;DHT22;10239;56.820;24.416;2023-05-29T08:49:04;29.40;66.40
20158;DHT22;10239;56.820;24.416;2023-05-29T08:51:37;29.00;66.90
20158;DHT22;10239;56.820;24.416;2023-05-29T08:54:05;28.70;69.10
20158;DHT22;10239;56.820;24.416;2023-05-29T08:56:34;28.60;67.90
20158;DHT22;10239;56.820;24.416;2023-05-29T08:59:03;28.40;69.80
20158;DHT22;10239;56.820;24.416;2023-05-29T09:01:34;28.30;70.40
20158;DHT22;10239;56.820;24.416;2023-05-29T09:04:03;28.00;72.20
20158;DHT22;10239;56.820;24.416;2023-05-29T09:06:31;28.00;70.80
20158;DHT22;10239;56.820;24.416;2023-05-29T09:08:58;28.00;72.80
20158;DHT22;10239;56.820;24.416;2023-05-29T09:11:26;28.20;70.30
20158;DHT22;10239;56.820;24.416;2023-05-29T09:13:54;27.90;70.20
20158;DHT22;10239;56.820;24.416;2023-05-29T09:16:25;28.40;71.70
20158;DHT22;10239;56.820;24.416;2023-05-29T09:18:52;28.80;71.70
20158;DHT22;10239;56.820;24.416;2023-05-29T09:21:28;29.40;71.50
20158;DHT22;10239;56.820;24.416;2023-05-29T09:24:03;29.70;67.90
20158;DHT22;10239;56.820;24.416;2023-05-29T09:26:31;29.80;67.40
20158;DHT22;10239;56.820;24.416;2023-05-29T09:29:00;30.40;66.50
20158;DHT22;10239;56.820;24.416;2023-05-29T09:31:28;30.90;64.60
20158;DHT22;10239;56.820;24.416;2023-05-29T09:34:01;31.50;63.80
20158;DHT22;10239;56.820;24.416;2023-05-29T09:36:30;31.60;61.20
20158;DHT22;10239;56.820;24.416;2023-05-29T09:39:02;31.40;64.20
20158;DHT22;10239;56.820;24.416;2023-05-29T09:41:44;31.50;65.50
20158;DHT22;10239;56.820;24.416;2023-05-29T09:44:15;31.70;64.10
20158;DHT22;10239;56.820;24.416;2023-05-29T09:46:43;31.40;60.90
20158;DHT22;10239;56.820;24.416;2023-05-29T09:49:15;31.80;63.90
20158;DHT22;10239;56.820;24.416;2023-05-29T09:51:47;32.20;64.40
20158;DHT22;10239;56.820;24.416;2023-05-29T09:54:18;32.50;61.50
20158;DHT22;10239;56.820;24.416;2023-05-29T09:56:54;32.20;60.00
20158;DHT22;10239;56.820;24.416;2023-05-29T09:59:24;32.00;60.70
20158;DHT22;10239;56.820;24.416;2023-05-29T10:02:00;31.60;64.10
20158;DHT22;10239;56.820;24.416;2023-05-29T10:04:31;31.60;61.70
20158;DHT22;10239;56.820;24.416;2023-05-29T10:07:09;31.70;62.50
20158;DHT22;10239;56.820;24.416;2023-05-29T10:09:44;31.70;61.30
20158;DHT22;10239;56.820;24.416;2023-05-29T10:12:16;31.60;62.30
20158;DHT22;10239;56.820;24.416;2023-05-29T10:14:49;31.70;62.30
20158;DHT22;10239;56.820;24.416;2023-05-29T10:17:18;31.60;60.50
20158;DHT22;10239;56.820;24.416;2023-05-29T10:19:49;31.40;61.20
20158;DHT22;10239;56.820;24.416;2023-05-29T10:22:20;31.40;61.20
20158;DHT22;10239;56.820;24.416;2023-05-29T10:24:49;31.80;62.30
20158;DHT22;10239;56.820;24.416;2023-05-29T10:27:18;31.90;60.20
20158;DHT22;10239;56.820;24.416;2023-05-29T10:30:24;31.60;60.30
20158;DHT22;10239;56.820;24.416;2023-05-29T10:35:46;31.30;60.70
20158;DHT22;10239;56.820;24.416;2023-05-29T10:38:16;31.10;62.70
20158;DHT22;10239;56.820;24.416;2023-05-29T10:40:46;30.90;60.20
20158;DHT22;10239;56.820;24.416;2023-05-29T10:43:33;30.40;61.70
20158;DHT22;10239;56.820;24.416;2023-05-29T10:46:01;29.80;63.10
20158;DHT22;10239;56.820;24.416;2023-05-29T10:48:36;29.60;63.20
20158;DHT22;10239;56.820;24.416;2023-05-29T10:51:06;29.10;63.60
20158;DHT22;10239;56.820;24.416;2023-05-29T10:53:35;28.80;63.80
20158;DHT22;10239;56.820;24.416;2023-05-29T10:56:08;28.80;65.20
20158;DHT22;10239;56.820;24.416;2023-05-29T10:58:38;29.00;64.20
20158;DHT22;10239;56.820;24.416;2023-05-29T11:01:08;29.10;65.50
20158;DHT22;10239;56.820;24.416;2023-05-29T11:03:36;29.40;65.30
20158;DHT22;10239;56.820;24.416;2023-05-29T11:06:20;29.90;66.00
20158;DHT22;10239;56.820;24.416;2023-05-29T11:08:53;30.40;64.30
20158;DHT22;10239;56.820;24.416;2023-05-29T11:14:00;30.20;63.00
20158;DHT22;10239;56.820;24.416;2023-05-29T11:19:05;29.40;64.90
20158;DHT22;10239;56.820;24.416;2023-05-29T11:24:24;29.00;62.60
20158;DHT22;10239;56.820;24.416;2023-05-29T11:26:54;28.40;63.30
20158;DHT22;10239;56.820;24.416;2023-05-29T11:29:24;28.30;64.80
20158;DHT22;10239;56.820;24.416;2023-05-29T11:31:58;28.50;64.90
20158;DHT22;10239;56.820;24.416;2023-05-29T11:34:31;28.60;63.80
20158;DHT22;10239;56.820;24.416;2023-05-29T11:37:03;28.60;62.70
20158;DHT22;10239;56.820;24.416;2023-05-29T11:39:38;28.60;61.10
20158;DHT22;10239;56.820;24.416;2023-05-29T11:42:08;28.60;62.00
20158;DHT22;10239;56.820;24.416;2023-05-29T11:44:36;28.60;61.50
20158;DHT22;10239;56.820;24.416;2023-05-29T11:47:06;28.10;64.70
20158;DHT22;10239;56.820;24.416;2023-05-29T11:49:36;27.90;59.80
20158;DHT22;10239;56.820;24.416;2023-05-29T11:52:09;27.70;59.50
20158;DHT22;10239;56.820;24.416;2023-05-29T11:54:40;27.60;59.10
20158;DHT22;10239;56.820;24.416;2023-05-29T11:57:22;27.30;59.20
20158;DHT22;10239;56.820;24.416;2023-05-29T11:59:50;27.10;59.50
20158;DHT22;10239;56.820;24.416;2023-05-29T12:02:30;27.20;64.70
20158;DHT22;10239;56.820;24.416;2023-05-29T12:05:05;27.40;59.50
20158;DHT22;10239;56.820;24.416;2023-05-29T12:07:35;27.60;59.80
20158;DHT22;10239;56.820;24.416;2023-05-29T12:10:13;27.70;59.20
20158;DHT22;10239;56.820;24.416;2023-05-29T12:12:42;27.90;59.70
20158;DHT22;10239;56.820;24.416;2023-05-29T12:15:10;28.00;60.10
20158;DHT22;10239;56.820;24.416;2023-05-29T12:17:38;28.00;58.80
20158;DHT22;10239;56.820;24.416;2023-05-29T12:20:06;28.00;60.10
20158;DHT22;10239;56.820;24.416;2023-05-29T12:22:37;28.00;61.70
20158;DHT22;10239;56.820;24.416;2023-05-29T12:27:43;27.90;60.80
20158;DHT22;10239;56.820;24.416;2023-05-29T12:32:59;27.20;59.80
20158;DHT22;10239;56.820;24.416;2023-05-29T12:35:29;27.20;63.20
20158;DHT22;10239;56.820;24.416;2023-05-29T12:38:02;26.90;61.40
20158;DHT22;10239;56.820;24.416;2023-05-29T12:40:33;26.60;63.50
20158;DHT22;10239;56.820;24.416;2023-05-29T12:43:07;26.40;65.40
20158;DHT22;10239;56.820;24.416;2023-05-29T12:45:36;26.40;65.20
20158;DHT22;10239;56.820;24.416;2023-05-29T12:48:06;26.30;65.70
20158;DHT22;10239;56.820;24.416;2023-05-29T12:50:37;26.60;64.80
20158;DHT22;10239;56.820;24.416;2023-05-29T12:53:12;26.90;63.80
20158;DHT22;10239;56.820;24.416;2023-05-29T12:55:43;26.90;63.20
20158;DHT22;10239;56.820;24.416;2023-05-29T12:58:14;26.50;62.90
20158;DHT22;10239;56.820;24.416;2023-05-29T13:00:43;26.40;60.50
20158;DHT22;10239;56.820;24.416;2023-05-29T13:03:13;26.10;60.60
20158;DHT22;10239;56.820;24.416;2023-05-29T13:05:42;26.00;61.30
20158;DHT22;10239;56.820;24.416;2023-05-29T13:08:10;25.90;62.20
20158;DHT22;10239;56.820;24.416;2023-05-29T13:10:38;25.70;61.90
20158;DHT22;10239;56.820;24.416;2023-05-29T13:13:08;25.50;62.40
20158;DHT22;10239;56.820;24.416;2023-05-29T13:15:37;25.70;64.40
20158;DHT22;10239;56.820;24.416;2023-05-29T13:18:05;25.70;62.00
20158;DHT22;10239;56.820;24.416;2023-05-29T13:20:32;25.70;61.80
20158;DHT22;10239;56.820;24.416;2023-05-29T13:23:00;25.70;62.30
20158;DHT22;10239;56.820;24.416;2023-05-29T13:25:28;25.60;62.80
20158;DHT22;10239;56.820;24.416;2023-05-29T13:27:55;25.70;63.40
20158;DHT22;10239;56.820;24.416;2023-05-29T13:30:23;25.80;60.50
20158;DHT22;10239;56.820;24.416;2023-05-29T13:32:50;25.70;63.70
20158;DHT22;10239;56.820;24.416;2023-05-29T13:35:19;25.70;64.40
20158;DHT22;10239;56.820;24.416;2023-05-29T13:37:47;25.70;64.50
20158;DHT22;10239;56.820;24.416;2023-05-29T13:40:15;25.60;62.10
20158;DHT22;10239;56.820;24.416;2023-05-29T13:42:42;25.60;64.40
20158;DHT22;10239;56.820;24.416;2023-05-29T13:45:10;25.60;63.60
20158;DHT22;10239;56.820;24.416;2023-05-29T13:47:39;25.70;64.60
20158;DHT22;10239;56.820;24.416;2023-05-29T13:50:08;25.80;63.10
20158;DHT22;10239;56.820;24.416;2023-05-29T13:52:36;25.60;63.20
20158;DHT22;10239;56.820;24.416;2023-05-29T13:55:03;25.80;63.20
20158;DHT22;10239;56.820;24.416;2023-05-29T13:57:36;25.80;63.70
20158;DHT22;10239;56.820;24.416;2023-05-29T14:00:05;25.70;65.20
20158;DHT22;10239;56.820;24.416;2023-05-29T14:02:33;25.40;63.20
20158;DHT22;10239;56.820;24.416;2023-05-29T14:05:00;25.00;64.80
20158;DHT22;10239;56.820;24.416;2023-05-29T14:07:28;24.80;65.10
20158;DHT22;10239;56.820;24.416;2023-05-29T14:09:55;24.60;66.30
20158;DHT22;10239;56.820;24.416;2023-05-29T14:12:23;24.50;67.50
20158;DHT22;10239;56.820;24.416;2023-05-29T14:14:50;24.80;67.20
20158;DHT22;10239;56.820;24.416;2023-05-29T14:17:18;25.10;65.20
20158;DHT22;10239;56.820;24.416;2023-05-29T14:19:45;24.90;65.70
20158;DHT22;10239;56.820;24.416;2023-05-29T14:22:14;24.70;67.70
20158;DHT22;10239;56.820;24.416;2023-05-29T14:24:42;24.60;67.80
20158;DHT22;10239;56.820;24.416;2023-05-29T14:27:09;24.50;67.00
20158;DHT22;10239;56.820;24.416;2023-05-29T14:29:36;24.30;69.60
20158;DHT22;10239;56.820;24.416;2023-05-29T14:32:04;24.10;69.60
20158;DHT22;10239;56.820;24.416;2023-05-29T14:34:32;23.90;68.60
20158;DHT22;10239;56.820;24.416;2023-05-29T14:36:59;23.70;68.90
20158;DHT22;10239;56.820;24.416;2023-05-29T14:39:26;23.60;69.70
20158;DHT22;10239;56.820;24.416;2023-05-29T14:41:54;23.30;69.00
20158;DHT22;10239;56.820;24.416;2023-05-29T14:44:21;23.20;71.80
20158;DHT22;10239;56.820;24.416;2023-05-29T14:46:49;22.90;72.20
20158;DHT22;10239;56.820;24.416;2023-05-29T14:49:17;22.80;72.20
20158;DHT22;10239;56.820;24.416;2023-05-29T14:51:45;22.80;72.10
20158;DHT22;10239;56.820;24.416;2023-05-29T14:54:13;22.90;72.60
20158;DHT22;10239;56.820;24.416;2023-05-29T14:56:41;23.20;72.70
20158;DHT22;10239;56.820;24.416;2023-05-29T14:59:09;23.40;72.00
20158;DHT22;10239;56.820;24.416;2023-05-29T15:01:36;23.60;71.30
20158;DHT22;10239;56.820;24.416;2023-05-29T15:04:04;23.60;70.60
20158;DHT22;10239;56.820;24.416;2023-05-29T15:06:33;23.40;70.90
20158;DHT22;10239;56.820;24.416;2023-05-29T15:09:01;23.40;69.90
20158;DHT22;10239;56.820;24.416;2023-05-29T15:11:31;23.50;71.20
20158;DHT22;10239;56.820;24.416;2023-05-29T15:13:59;23.60;69.20
20158;DHT22;10239;56.820;24.416;2023-05-29T15:16:27;23.40;70.30
20158;DHT22;10239;56.820;24.416;2023-05-29T15:18:54;23.30;70.70
20158;DHT22;10239;56.820;24.416;2023-05-29T15:21:23;23.00;71.00
20158;DHT22;10239;56.820;24.416;2023-05-29T15:23:50;22.80;71.50
20158;DHT22;10239;56.820;24.416;2023-05-29T15:26:17;22.60;72.40
20158;DHT22;10239;56.820;24.416;2023-05-29T15:28:45;22.40;72.90
20158;DHT22;10239;56.820;24.416;2023-05-29T15:31:12;22.30;72.80
20158;DHT22;10239;56.820;24.416;2023-05-29T15:33:41;22.10;73.50
20158;DHT22;10239;56.820;24.416;2023-05-29T15:36:08;22.00;73.80
20158;DHT22;10239;56.820;24.416;2023-05-29T15:38:36;21.80;73.40
20158;DHT22;10239;56.820;24.416;2023-05-29T15:41:04;21.80;73.20
20158;DHT22;10239;56.820;24.416;2023-05-29T15:43:32;21.70;72.70
20158;DHT22;10239;56.820;24.416;2023-05-29T15:46:00;21.60;74.80
20158;DHT22;10239;56.820;24.416;2023-05-29T15:48:27;21.50;74.30
20158;DHT22;10239;56.820;24.416;2023-05-29T15:50:55;21.50;75.00
20158;DHT22;10239;56.820;24.416;2023-05-29T15:53:22;21.40;74.80
20158;DHT22;10239;56.820;24.416;2023-05-29T15:55:50;21.30;75.60
20158;DHT22;10239;56.820;24.416;2023-05-29T15:58:17;21.20;75.10
20158;DHT22;10239;56.820;24.416;2023-05-29T16:00:45;21.20;74.90
20158;DHT22;10239;56.820;24.416;2023-05-29T16:03:12;21.30;75.40
20158;DHT22;10239;56.820;24.416;2023-05-29T16:05:40;21.20;75.70